createdAt,value
2017-06-01T00:00:39.383Z,0
2017-06-01T00:01:39.457Z,0
2017-06-01T00:02:39.423Z,0
2017-06-01T00:03:39.437Z,0
2017-06-01T00:04:39.513Z,0
2017-06-01T00:05:39.521Z,0
2017-06-01T00:06:39.652Z,0
2017-06-01T00:07:39.550Z,0
2017-06-01T00:08:39.667Z,0
2017-06-01T00:09:39.698Z,0
2017-06-01T00:10:39.698Z,0
2017-06-01T00:11:39.782Z,0
2017-06-01T00:12:39.775Z,0
2017-06-01T00:13:39.822Z,0
2017-06-01T00:14:39.811Z,0
2017-06-01T00:15:39.887Z,0
2017-06-01T00:16:39.853Z,0
2017-06-01T00:17:39.911Z,0
2017-06-01T00:18:40.016Z,0
2017-06-01T00:19:39.984Z,0
2017-06-01T00:20:40.062Z,0
2017-06-01T00:21:40.120Z,0
2017-06-01T00:22:40.066Z,0
2017-06-01T00:23:40.152Z,0
2017-06-01T00:24:40.173Z,0
2017-06-01T00:25:40.163Z,0
2017-06-01T00:26:40.215Z,0
2017-06-01T00:27:40.282Z,0
2017-06-01T00:28:40.319Z,0
2017-06-01T00:29:40.320Z,0
2017-06-01T00:30:40.421Z,0
2017-06-01T00:31:40.420Z,0
2017-06-01T00:32:40.440Z,0
2017-06-01T00:33:40.444Z,0
2017-06-01T00:34:40.479Z,0
2017-06-01T00:35:40.524Z,0
2017-06-01T00:36:40.626Z,0
2017-06-01T00:37:40.564Z,0
2017-06-01T00:38:40.599Z,0
2017-06-01T00:39:40.723Z,0
2017-06-01T00:40:40.680Z,0
2017-06-01T00:41:40.709Z,0
2017-06-01T00:42:40.824Z,0
2017-06-01T00:43:40.806Z,0
2017-06-01T00:44:40.831Z,0
2017-06-01T00:45:40.872Z,0
2017-06-01T00:46:40.905Z,0
2017-06-01T00:47:41.040Z,0
2017-06-01T00:48:41.022Z,0
2017-06-01T00:49:40.996Z,0
2017-06-01T00:50:41.024Z,0
2017-06-01T00:51:41.078Z,0
2017-06-01T00:52:41.378Z,0
2017-06-01T00:53:41.074Z,0
2017-06-01T00:54:41.158Z,0
2017-06-01T00:55:41.412Z,0
2017-06-01T00:56:41.240Z,0
2017-06-01T00:57:41.599Z,0
2017-06-01T00:58:41.322Z,0
2017-06-01T00:59:41.312Z,0
2017-06-01T01:00:41.338Z,0
2017-06-01T01:01:41.428Z,0
2017-06-01T01:02:41.590Z,0
2017-06-01T01:03:41.492Z,0
2017-06-01T01:04:41.526Z,0
2017-06-01T01:05:41.500Z,0
2017-06-01T01:06:41.596Z,0
2017-06-01T01:07:41.658Z,0
2017-06-01T01:08:41.595Z,0
2017-06-01T01:09:41.671Z,0
2017-06-01T01:10:41.726Z,0
2017-06-01T01:11:41.719Z,0
2017-06-01T01:12:41.880Z,0
2017-06-01T01:13:41.833Z,0
2017-06-01T01:14:41.828Z,0
2017-06-01T01:15:41.843Z,0
2017-06-01T01:16:41.881Z,0
2017-06-01T01:17:42.160Z,0
2017-06-01T01:18:41.942Z,0
2017-06-01T01:19:41.998Z,0
2017-06-01T01:20:42.060Z,0
2017-06-01T01:21:42.020Z,0
2017-06-01T01:22:42.104Z,0
2017-06-01T01:23:42.129Z,0
2017-06-01T01:24:42.103Z,0
2017-06-01T01:25:42.213Z,0
2017-06-01T01:26:42.225Z,0
2017-06-01T01:27:42.241Z,0
2017-06-01T01:28:42.312Z,0
2017-06-01T01:29:42.350Z,0
2017-06-01T01:30:42.372Z,0
2017-06-01T01:31:42.382Z,0
2017-06-01T01:32:42.369Z,0
2017-06-01T01:33:42.482Z,0
2017-06-01T01:34:42.492Z,0
2017-06-01T01:35:42.519Z,0
2017-06-01T01:36:42.576Z,0
2017-06-01T01:37:42.578Z,0
2017-06-01T01:38:42.672Z,0
2017-06-01T01:39:42.642Z,0
2017-06-01T01:40:42.705Z,0
2017-06-01T01:41:42.759Z,0
2017-06-01T01:42:42.725Z,0
2017-06-01T01:43:42.878Z,0
2017-06-01T01:44:42.839Z,0
2017-06-01T01:45:42.849Z,0
2017-06-01T01:46:42.883Z,0
2017-06-01T01:47:42.886Z,0
2017-06-01T01:48:43.199Z,0
2017-06-01T01:49:42.982Z,0
2017-06-01T01:50:42.989Z,0
2017-06-01T01:51:43.026Z,0
2017-06-01T01:52:43.026Z,0
2017-06-01T01:53:43.231Z,0
2017-06-01T01:54:43.147Z,0
2017-06-01T01:55:43.146Z,0
2017-06-01T01:56:43.197Z,0
2017-06-01T01:57:43.222Z,0
2017-06-01T01:58:43.350Z,0
2017-06-01T01:59:43.322Z,0
2017-06-01T02:00:43.330Z,0
2017-06-01T02:01:43.367Z,0
2017-06-01T02:02:43.399Z,0
2017-06-01T02:03:43.550Z,0
2017-06-01T02:04:43.484Z,0
2017-06-01T02:05:43.473Z,0
2017-06-01T02:06:43.570Z,0
2017-06-01T02:07:43.585Z,0
2017-06-01T02:08:43.589Z,0
2017-06-01T02:09:43.680Z,0
2017-06-01T02:10:43.671Z,0
2017-06-01T02:11:43.688Z,0
2017-06-01T02:12:43.776Z,0
2017-06-01T02:13:43.785Z,0
2017-06-01T02:14:43.792Z,0
2017-06-01T02:15:43.880Z,0
2017-06-01T02:16:43.885Z,0
2017-06-01T02:17:43.896Z,0
2017-06-01T02:18:43.920Z,0
2017-06-01T02:19:44.026Z,0
2017-06-01T02:20:43.982Z,0
2017-06-01T02:21:43.989Z,0
2017-06-01T02:22:44.065Z,0
2017-06-01T02:23:44.096Z,0
2017-06-01T02:24:44.154Z,0
2017-06-01T02:25:44.191Z,0
2017-06-01T02:26:44.215Z,0
2017-06-01T02:27:44.239Z,0
2017-06-01T02:28:44.246Z,0
2017-06-01T02:29:44.362Z,0
2017-06-01T02:30:44.309Z,0
2017-06-01T02:31:44.304Z,0
2017-06-01T02:32:44.410Z,0
2017-06-01T02:33:44.408Z,0
2017-06-01T02:34:44.510Z,0
2017-06-01T02:35:44.465Z,0
2017-06-01T02:36:44.506Z,0
2017-06-01T02:37:44.511Z,0
2017-06-01T02:38:44.520Z,0
2017-06-01T02:39:44.700Z,0
2017-06-01T02:40:44.600Z,0
2017-06-01T02:41:44.710Z,0
2017-06-01T02:42:44.662Z,5
2017-06-01T02:43:44.759Z,5
2017-06-01T02:44:44.905Z,5
2017-06-01T02:45:44.739Z,5
2017-06-01T02:46:44.794Z,5
2017-06-01T02:47:44.810Z,5
2017-06-01T02:48:44.910Z,5
2017-06-01T02:49:45.022Z,5
2017-06-01T02:50:45.002Z,5
2017-06-01T02:51:44.991Z,5
2017-06-01T02:52:45.011Z,10
2017-06-01T02:53:45.058Z,10
2017-06-01T02:54:45.109Z,10
2017-06-01T02:55:45.166Z,10
2017-06-01T02:56:45.173Z,10
2017-06-01T02:57:45.173Z,10
2017-06-01T02:58:45.222Z,15
2017-06-01T02:59:45.214Z,15
2017-06-01T03:00:45.251Z,15
2017-06-01T03:01:45.282Z,15
2017-06-01T03:02:45.379Z,15
2017-06-01T03:03:45.376Z,15
2017-06-01T03:04:45.374Z,20
2017-06-01T03:05:45.413Z,20
2017-06-01T03:06:45.480Z,20
2017-06-01T03:07:45.527Z,20
2017-06-01T03:08:45.577Z,25
2017-06-01T03:09:45.590Z,25
2017-06-01T03:10:45.613Z,25
2017-06-01T03:11:45.615Z,25
2017-06-01T03:12:45.711Z,30
2017-06-01T03:13:45.661Z,30
2017-06-01T03:14:45.732Z,30
2017-06-01T03:15:45.705Z,30
2017-06-01T03:16:45.823Z,30
2017-06-01T03:17:45.835Z,35
2017-06-01T03:18:45.884Z,35
2017-06-01T03:19:45.896Z,35
2017-06-01T03:20:45.917Z,35
2017-06-01T03:21:45.989Z,40
2017-06-01T03:22:45.960Z,40
2017-06-01T03:23:45.962Z,40
2017-06-01T03:24:46.041Z,45
2017-06-01T03:25:46.218Z,45
2017-06-01T03:26:46.112Z,45
2017-06-01T03:27:46.167Z,45
2017-06-01T03:28:46.175Z,50
2017-06-01T03:29:46.175Z,50
2017-06-01T03:30:46.587Z,50
2017-06-01T03:31:46.252Z,50
2017-06-01T03:32:46.295Z,55
2017-06-01T03:33:46.370Z,55
2017-06-01T03:34:46.424Z,55
2017-06-01T03:35:46.531Z,60
2017-06-01T03:36:46.429Z,60
2017-06-01T03:37:46.470Z,60
2017-06-01T03:38:46.471Z,60
2017-06-01T03:39:46.538Z,65
2017-06-01T03:40:46.652Z,65
2017-06-01T03:41:46.600Z,65
2017-06-01T03:42:46.610Z,70
2017-06-01T03:43:46.675Z,70
2017-06-01T03:44:46.739Z,70
2017-06-01T03:45:46.727Z,70
2017-06-01T03:46:46.794Z,75
2017-06-01T03:47:46.838Z,75
2017-06-01T03:48:46.794Z,75
2017-06-01T03:49:46.869Z,80
2017-06-01T03:50:46.935Z,80
2017-06-01T03:51:46.912Z,80
2017-06-01T03:52:46.897Z,80
2017-06-01T03:53:46.962Z,85
2017-06-01T03:54:46.982Z,85
2017-06-01T03:55:47.037Z,90
2017-06-01T03:56:47.116Z,90
2017-06-01T03:57:47.173Z,90
2017-06-01T03:58:47.133Z,90
2017-06-01T03:59:47.206Z,90
2017-06-01T04:00:47.133Z,90
2017-06-01T04:01:47.162Z,95
2017-06-01T04:02:47.211Z,100
2017-06-01T04:03:47.243Z,105
2017-06-01T04:04:47.262Z,115
2017-06-01T04:05:47.311Z,125
2017-06-01T04:06:47.364Z,155
2017-06-01T04:07:47.404Z,145
2017-06-01T04:08:47.418Z,135
2017-06-01T04:09:47.433Z,140
2017-06-01T04:10:47.470Z,140
2017-06-01T04:11:47.496Z,135
2017-06-01T04:12:47.543Z,135
2017-06-01T04:13:47.558Z,155
2017-06-01T04:14:47.599Z,185
2017-06-01T04:15:47.638Z,240
2017-06-01T04:16:47.622Z,270
2017-06-01T04:17:47.709Z,275
2017-06-01T04:18:47.780Z,545
2017-06-01T04:19:47.759Z,835
2017-06-01T04:20:47.781Z,920
2017-06-01T04:21:47.826Z,925
2017-06-01T04:22:47.851Z,925
2017-06-01T04:23:47.897Z,955
2017-06-01T04:24:47.939Z,980
2017-06-01T04:25:47.943Z,970
2017-06-01T04:26:47.987Z,750
2017-06-01T04:27:48.029Z,445
2017-06-01T04:28:48.078Z,245
2017-06-01T04:29:48.120Z,210
2017-06-01T04:30:48.167Z,200
2017-06-01T04:31:48.184Z,190
2017-06-01T04:32:48.209Z,210
2017-06-01T04:33:48.224Z,200
2017-06-01T04:34:48.241Z,205
2017-06-01T04:35:48.316Z,255
2017-06-01T04:36:48.541Z,250
2017-06-01T04:37:48.365Z,265
2017-06-01T04:38:48.396Z,285
2017-06-01T04:39:48.463Z,245
2017-06-01T04:40:48.485Z,235
2017-06-01T04:41:48.510Z,225
2017-06-01T04:42:48.565Z,225
2017-06-01T04:43:48.597Z,220
2017-06-01T04:44:48.633Z,225
2017-06-01T04:45:48.619Z,215
2017-06-01T04:46:48.692Z,215
2017-06-01T04:47:48.744Z,225
2017-06-01T04:48:48.761Z,225
2017-06-01T04:49:48.804Z,225
2017-06-01T04:50:48.788Z,235
2017-06-01T04:51:49.077Z,240
2017-06-01T04:52:48.917Z,250
2017-06-01T04:53:48.945Z,240
2017-06-01T04:54:49.085Z,240
2017-06-01T04:55:49.003Z,260
2017-06-01T04:56:49.028Z,285
2017-06-01T04:57:49.075Z,245
2017-06-01T04:58:49.106Z,240
2017-06-01T04:59:49.162Z,245
2017-06-01T05:00:49.179Z,250
2017-06-01T05:01:49.219Z,250
2017-06-01T05:02:49.241Z,245
2017-06-01T05:03:49.386Z,245
2017-06-01T05:04:49.330Z,245
2017-06-01T05:05:49.357Z,260
2017-06-01T05:06:49.548Z,270
2017-06-01T05:07:49.602Z,270
2017-06-01T05:08:49.450Z,295
2017-06-01T05:09:49.482Z,310
2017-06-01T05:10:49.513Z,315
2017-06-01T05:11:49.650Z,335
2017-06-01T05:12:49.604Z,555
2017-06-01T05:13:49.633Z,320
2017-06-01T05:14:49.651Z,280
2017-06-01T05:15:49.706Z,300
2017-06-01T05:16:49.739Z,305
2017-06-01T05:17:49.777Z,295
2017-06-01T05:18:49.774Z,275
2017-06-01T05:19:49.849Z,275
2017-06-01T05:20:49.862Z,280
2017-06-01T05:21:49.920Z,290
2017-06-01T05:22:49.949Z,315
2017-06-01T05:23:49.963Z,325
2017-06-01T05:24:50.069Z,285
2017-06-01T05:25:50.039Z,290
2017-06-01T05:26:50.106Z,310
2017-06-01T05:27:50.180Z,365
2017-06-01T05:28:50.144Z,525
2017-06-01T05:29:50.144Z,450
2017-06-01T05:30:50.224Z,590
2017-06-01T05:31:50.252Z,995
2017-06-01T05:32:50.280Z,1130
2017-06-01T05:33:50.870Z,800
2017-06-01T05:34:51.014Z,575
2017-06-01T05:35:50.377Z,550
2017-06-01T05:36:50.507Z,700
2017-06-01T05:37:50.446Z,595
2017-06-01T05:38:50.505Z,390
2017-06-01T05:39:50.538Z,560
2017-06-01T05:40:50.593Z,860
2017-06-01T05:41:50.584Z,470
2017-06-01T05:42:50.649Z,595
2017-06-01T05:43:50.675Z,480
2017-06-01T05:44:50.723Z,535
2017-06-01T05:45:50.769Z,305
2017-06-01T05:46:50.698Z,310
2017-06-01T05:47:50.818Z,325
2017-06-01T05:48:50.879Z,355
2017-06-01T05:49:50.894Z,305
2017-06-01T05:50:50.912Z,305
2017-06-01T05:51:50.964Z,310
2017-06-01T05:52:50.999Z,530
2017-06-01T05:53:51.025Z,580
2017-06-01T05:54:51.055Z,850
2017-06-01T05:55:51.232Z,600
2017-06-01T05:56:51.133Z,465
2017-06-01T05:57:51.142Z,470
2017-06-01T05:58:51.261Z,735
2017-06-01T05:59:51.252Z,530
2017-06-01T06:00:51.908Z,495
2017-06-01T06:01:51.327Z,520
2017-06-01T06:02:51.384Z,415
2017-06-01T06:03:51.402Z,420
2017-06-01T06:04:51.447Z,545
2017-06-01T06:05:51.486Z,550
2017-06-01T06:06:51.524Z,705
2017-06-01T06:07:51.772Z,590
2017-06-01T06:08:51.556Z,710
2017-06-01T06:09:51.581Z,835
2017-06-01T06:10:51.633Z,660
2017-06-01T06:11:51.681Z,1300
2017-06-01T06:12:51.763Z,615
2017-06-01T06:13:51.743Z,695
2017-06-01T06:14:51.792Z,695
2017-06-01T06:15:51.829Z,895
2017-06-01T06:16:51.857Z,1805
2017-06-01T06:17:52.094Z,1400
2017-06-01T06:18:51.948Z,2160
2017-06-01T06:19:51.993Z,2175
2017-06-01T06:20:52.026Z,2165
2017-06-01T06:21:52.077Z,2055
2017-06-01T06:22:52.117Z,2105
2017-06-01T06:23:52.131Z,2155
2017-06-01T06:24:52.177Z,2175
2017-06-01T06:25:52.198Z,2260
2017-06-01T06:26:52.267Z,2230
2017-06-01T06:27:52.297Z,2210
2017-06-01T06:28:52.329Z,2300
2017-06-01T06:29:52.406Z,2330
2017-06-01T06:30:52.411Z,2325
2017-06-01T06:31:52.461Z,2280
2017-06-01T06:32:52.496Z,1615
2017-06-01T06:33:52.528Z,2365
2017-06-01T06:34:52.577Z,2285
2017-06-01T06:35:52.625Z,2335
2017-06-01T06:36:52.677Z,2380
2017-06-01T06:37:52.730Z,2425
2017-06-01T06:38:52.719Z,2230
2017-06-01T06:39:52.776Z,2255
2017-06-01T06:40:52.831Z,1905
2017-06-01T06:41:52.874Z,2010
2017-06-01T06:42:52.885Z,2310
2017-06-01T06:43:52.936Z,2455
2017-06-01T06:44:52.972Z,2380
2017-06-01T06:45:53.036Z,2430
2017-06-01T06:46:53.077Z,2485
2017-06-01T06:47:53.086Z,2495
2017-06-01T06:48:53.127Z,2520
2017-06-01T06:49:53.205Z,2405
2017-06-01T06:50:53.228Z,2325
2017-06-01T06:51:53.277Z,2430
2017-06-01T06:52:53.337Z,2470
2017-06-01T06:53:53.397Z,2465
2017-06-01T06:54:53.424Z,2465
2017-06-01T06:55:53.463Z,2445
2017-06-01T06:56:53.508Z,2250
2017-06-01T06:57:53.560Z,2345
2017-06-01T06:58:53.618Z,2480
2017-06-01T06:59:53.663Z,2465
2017-06-01T07:00:55.623Z,2105
2017-06-01T07:01:54.420Z,2405
2017-06-01T07:02:54.509Z,2450
2017-06-01T07:03:54.454Z,2475
2017-06-01T07:04:54.536Z,2525
2017-06-01T07:05:54.568Z,2550
2017-06-01T07:06:54.597Z,2510
2017-06-01T07:07:54.865Z,2540
2017-06-01T07:08:54.691Z,2555
2017-06-01T07:09:54.808Z,2515
2017-06-01T07:10:54.818Z,2510
2017-06-01T07:11:54.808Z,2470
2017-06-01T07:12:54.878Z,2455
2017-06-01T07:13:54.931Z,2470
2017-06-01T07:14:54.973Z,2535
2017-06-01T07:15:55.008Z,2505
2017-06-01T07:16:55.040Z,2470
2017-06-01T07:17:55.094Z,2490
2017-06-01T07:18:55.146Z,2520
2017-06-01T07:19:55.171Z,2645
2017-06-01T07:20:55.218Z,2625
2017-06-01T07:21:55.273Z,2670
2017-06-01T07:22:55.330Z,2550
2017-06-01T07:23:55.366Z,2465
2017-06-01T07:24:55.384Z,2350
2017-06-01T07:25:55.439Z,2305
2017-06-01T07:26:55.479Z,2455
2017-06-01T07:27:55.544Z,2590
2017-06-01T07:28:55.591Z,2570
2017-06-01T07:29:55.643Z,2510
2017-06-01T07:30:55.670Z,2500
2017-06-01T07:31:55.713Z,2645
2017-06-01T07:32:55.775Z,2600
2017-06-01T07:33:55.808Z,2470
2017-06-01T07:34:55.818Z,2520
2017-06-01T07:35:55.899Z,2550
2017-06-01T07:36:55.960Z,2640
2017-06-01T07:37:55.970Z,2640
2017-06-01T07:38:56.047Z,2690
2017-06-01T07:39:56.105Z,2745
2017-06-01T07:40:56.143Z,2735
2017-06-01T07:41:56.170Z,2670
2017-06-01T07:42:56.229Z,2590
2017-06-01T07:43:56.272Z,2675
2017-06-01T07:44:56.321Z,2740
2017-06-01T07:45:56.373Z,2650
2017-06-01T07:46:56.421Z,2675
2017-06-01T07:47:56.444Z,2755
2017-06-01T07:48:56.468Z,2655
2017-06-01T07:49:56.544Z,2610
2017-06-01T07:50:56.570Z,2675
2017-06-01T07:51:56.668Z,2720
2017-06-01T07:52:56.687Z,2830
2017-06-01T07:53:56.715Z,2720
2017-06-01T07:54:56.749Z,2475
2017-06-01T07:55:56.822Z,2625
2017-06-01T07:56:56.879Z,2675
2017-06-01T07:57:56.917Z,2810
2017-06-01T07:58:56.954Z,2830
2017-06-01T07:59:56.987Z,2815
2017-06-01T08:01:10.414Z,2750
2017-06-01T08:01:57.107Z,2815
2017-06-01T08:02:57.123Z,2845
2017-06-01T08:03:57.180Z,2790
2017-06-01T08:04:57.220Z,2695
2017-06-01T08:05:57.274Z,2685
2017-06-01T08:06:57.318Z,2800
2017-06-01T08:07:57.383Z,2780
2017-06-01T08:08:57.448Z,2605
2017-06-01T08:09:57.471Z,2765
2017-06-01T08:10:57.518Z,2625
2017-06-01T08:11:57.576Z,2650
2017-06-01T08:12:57.657Z,2795
2017-06-01T08:13:57.667Z,2935
2017-06-01T08:14:57.700Z,3050
2017-06-01T08:15:57.817Z,3090
2017-06-01T08:16:57.802Z,3015
2017-06-01T08:17:57.851Z,2930
2017-06-01T08:18:58.094Z,2790
2017-06-01T08:19:57.981Z,2835
2017-06-01T08:20:58.015Z,2920
2017-06-01T08:21:58.031Z,2740
2017-06-01T08:22:58.087Z,2900
2017-06-01T08:23:58.093Z,2910
2017-06-01T08:24:58.154Z,2795
2017-06-01T08:25:58.221Z,2905
2017-06-01T08:26:58.278Z,3045
2017-06-01T08:27:58.328Z,2890
2017-06-01T08:28:58.364Z,2915
2017-06-01T08:29:58.408Z,3125
2017-06-01T08:30:58.439Z,3050
2017-06-01T08:31:58.507Z,3185
2017-06-01T08:32:58.544Z,3310
2017-06-01T08:33:58.592Z,3245
2017-06-01T08:34:58.659Z,3275
2017-06-01T08:35:58.686Z,3425
2017-06-01T08:36:58.688Z,3465
2017-06-01T08:37:58.791Z,3405
2017-06-01T08:38:58.840Z,3455
2017-06-01T08:39:58.870Z,3305
2017-06-01T08:40:58.909Z,3175
2017-06-01T08:41:58.963Z,3240
2017-06-01T08:42:59.016Z,3420
2017-06-01T08:43:59.078Z,3530
2017-06-01T08:44:59.123Z,3465
2017-06-01T08:45:59.171Z,3595
2017-06-01T08:46:59.224Z,3770
2017-06-01T08:47:59.270Z,3760
2017-06-01T08:48:59.303Z,3675
2017-06-01T08:49:59.367Z,3475
2017-06-01T08:50:59.410Z,3540
2017-06-01T08:51:59.461Z,3580
2017-06-01T08:52:59.499Z,3575
2017-06-01T08:53:59.556Z,3715
2017-06-01T08:54:59.576Z,3655
2017-06-01T08:55:59.661Z,3670
2017-06-01T08:56:59.699Z,3590
2017-06-01T08:57:59.756Z,3580
2017-06-01T08:58:59.801Z,3685
2017-06-01T08:59:59.828Z,3810
2017-06-01T09:01:10.185Z,3825
2017-06-01T09:02:00.078Z,4010
2017-06-01T09:02:59.999Z,3990
2017-06-01T09:04:00.024Z,3905
2017-06-01T09:05:00.337Z,3975
2017-06-01T09:06:00.137Z,3805
2017-06-01T09:07:00.149Z,3740
2017-06-01T09:08:00.268Z,3950
2017-06-01T09:09:00.293Z,3720
2017-06-01T09:10:00.342Z,3440
2017-06-01T09:11:00.380Z,3280
2017-06-01T09:12:00.426Z,3270
2017-06-01T09:13:00.467Z,3340
2017-06-01T09:14:00.498Z,3265
2017-06-01T09:15:00.573Z,3500
2017-06-01T09:16:00.607Z,3360
2017-06-01T09:17:00.679Z,3255
2017-06-01T09:18:00.722Z,3135
2017-06-01T09:19:00.789Z,2990
2017-06-01T09:20:00.803Z,2960
2017-06-01T09:21:00.876Z,2880
2017-06-01T09:22:00.890Z,2930
2017-06-01T09:23:00.955Z,2895
2017-06-01T09:24:00.991Z,2965
2017-06-01T09:25:01.078Z,3280
2017-06-01T09:26:01.135Z,3160
2017-06-01T09:27:01.178Z,2850
2017-06-01T09:28:01.235Z,2525
2017-06-01T09:29:01.280Z,2520
2017-06-01T09:30:01.301Z,2665
2017-06-01T09:31:01.380Z,2530
2017-06-01T09:32:01.529Z,1870
2017-06-01T09:33:01.469Z,1495
2017-06-01T09:34:01.502Z,1580
2017-06-01T09:35:01.568Z,1795
2017-06-01T09:36:01.619Z,1930
2017-06-01T09:37:01.644Z,2065
2017-06-01T09:38:01.725Z,2255
2017-06-01T09:39:01.751Z,2205
2017-06-01T09:40:01.789Z,2110
2017-06-01T09:41:01.883Z,2250
2017-06-01T09:42:01.930Z,2340
2017-06-01T09:43:01.947Z,2590
2017-06-01T09:44:02.019Z,2775
2017-06-01T09:45:02.081Z,2745
2017-06-01T09:46:02.150Z,2505
2017-06-01T09:47:02.179Z,2775
2017-06-01T09:48:02.257Z,2995
2017-06-01T09:49:02.269Z,2935
2017-06-01T09:50:02.311Z,2790
2017-06-01T09:51:02.385Z,2745
2017-06-01T09:52:02.440Z,2790
2017-06-01T09:53:02.479Z,2895
2017-06-01T09:54:02.529Z,3035
2017-06-01T09:55:02.582Z,3010
2017-06-01T09:56:02.620Z,2855
2017-06-01T09:57:02.689Z,2870
2017-06-01T09:58:02.695Z,3095
2017-06-01T09:59:02.783Z,2910
2017-06-01T10:00:02.812Z,2855
2017-06-01T10:01:02.879Z,2955
2017-06-01T10:02:03.056Z,3325
2017-06-01T10:03:02.982Z,3400
2017-06-01T10:04:03.028Z,3245
2017-06-01T10:05:03.079Z,3370
2017-06-01T10:06:03.154Z,3360
2017-06-01T10:07:03.249Z,3425
2017-06-01T10:08:03.377Z,2970
2017-06-01T10:09:03.322Z,2840
2017-06-01T10:10:03.324Z,3075
2017-06-01T10:11:03.394Z,3330
2017-06-01T10:12:03.420Z,3405
2017-06-01T10:13:03.501Z,3330
2017-06-01T10:14:03.536Z,3485
2017-06-01T10:15:03.600Z,2180
2017-06-01T10:16:03.848Z,980
2017-06-01T10:17:03.726Z,1075
2017-06-01T10:18:03.737Z,2495
2017-06-01T10:19:03.776Z,2680
2017-06-01T10:20:03.839Z,2825
2017-06-01T10:21:03.893Z,2800
2017-06-01T10:22:03.968Z,2955
2017-06-01T10:23:03.996Z,3165
2017-06-01T10:24:04.030Z,2895
2017-06-01T10:25:04.058Z,3065
2017-06-01T10:26:04.128Z,3190
2017-06-01T10:27:04.175Z,3185
2017-06-01T10:28:04.240Z,3250
2017-06-01T10:29:04.466Z,3315
2017-06-01T10:30:04.659Z,3280
2017-06-01T10:31:04.358Z,3140
2017-06-01T10:32:04.389Z,2895
2017-06-01T10:33:04.505Z,2605
2017-06-01T10:34:04.516Z,2875
2017-06-01T10:35:04.779Z,3275
2017-06-01T10:36:04.610Z,3580
2017-06-01T10:37:04.651Z,3245
2017-06-01T10:38:04.703Z,2855
2017-06-01T10:39:04.736Z,3120
2017-06-01T10:40:04.786Z,3365
2017-06-01T10:41:04.819Z,3220
2017-06-01T10:42:04.874Z,2970
2017-06-01T10:43:04.899Z,2850
2017-06-01T10:44:04.971Z,2955
2017-06-01T10:45:04.994Z,3115
2017-06-01T10:46:05.040Z,3035
2017-06-01T10:47:05.076Z,3075
2017-06-01T10:48:05.139Z,2990
2017-06-01T10:49:05.180Z,2925
2017-06-01T10:50:05.236Z,2825
2017-06-01T10:51:05.267Z,2865
2017-06-01T10:52:05.342Z,3045
2017-06-01T10:53:05.361Z,3080
2017-06-01T10:54:05.412Z,3110
2017-06-01T10:55:05.452Z,3020
2017-06-01T10:56:05.538Z,2820
2017-06-01T10:57:05.539Z,2800
2017-06-01T10:58:05.591Z,2880
2017-06-01T10:59:05.615Z,3050
2017-06-01T11:00:05.635Z,3235
2017-06-01T11:01:05.798Z,3085
2017-06-01T11:02:05.755Z,2985
2017-06-01T11:03:05.838Z,2710
2017-06-01T11:04:05.836Z,1640
2017-06-01T11:05:05.891Z,505
2017-06-01T11:06:05.948Z,380
2017-06-01T11:07:05.930Z,350
2017-06-01T11:08:06.000Z,330
2017-06-01T11:09:06.072Z,325
2017-06-01T11:10:06.066Z,305
2017-06-01T11:11:06.125Z,285
2017-06-01T11:12:06.179Z,275
2017-06-01T11:13:06.266Z,270
2017-06-01T11:14:06.281Z,270
2017-06-01T11:15:06.337Z,260
2017-06-01T11:16:06.360Z,250
2017-06-01T11:17:06.386Z,240
2017-06-01T11:18:06.432Z,235
2017-06-01T11:19:06.463Z,230
2017-06-01T11:20:06.525Z,230
2017-06-01T11:21:06.539Z,230
2017-06-01T11:22:06.642Z,230
2017-06-01T11:23:06.640Z,225
2017-06-01T11:24:06.890Z,220
2017-06-01T11:25:06.693Z,215
2017-06-01T11:26:06.700Z,210
2017-06-01T11:27:06.771Z,205
2017-06-01T11:28:06.808Z,200
2017-06-01T11:29:06.826Z,190
2017-06-01T11:30:06.914Z,190
2017-06-01T11:31:06.997Z,190
2017-06-01T11:32:06.961Z,190
2017-06-01T11:33:07.038Z,190
2017-06-01T11:34:07.101Z,185
2017-06-01T11:35:07.135Z,190
2017-06-01T11:36:07.153Z,195
2017-06-01T11:37:07.214Z,190
2017-06-01T11:38:07.231Z,190
2017-06-01T11:39:07.263Z,185
2017-06-01T11:40:07.330Z,185
2017-06-01T11:41:07.357Z,185
2017-06-01T11:42:07.393Z,185
2017-06-01T11:43:07.425Z,180
2017-06-01T11:44:07.486Z,180
2017-06-01T11:45:07.513Z,180
2017-06-01T11:46:07.517Z,180
2017-06-01T11:47:07.601Z,180
2017-06-01T11:48:07.636Z,180
2017-06-01T11:49:07.693Z,175
2017-06-01T11:50:07.700Z,180
2017-06-01T11:51:07.735Z,175
2017-06-01T11:52:07.775Z,175
2017-06-01T11:53:08.061Z,175
2017-06-01T11:54:07.837Z,175
2017-06-01T11:55:07.938Z,175
2017-06-01T11:56:07.913Z,175
2017-06-01T11:57:07.988Z,175
2017-06-01T11:58:08.027Z,170
2017-06-01T11:59:08.319Z,175
2017-06-01T12:00:08.167Z,175
2017-06-01T12:01:08.153Z,175
2017-06-01T12:02:08.241Z,170
2017-06-01T12:03:08.302Z,170
2017-06-01T12:04:08.290Z,170
2017-06-01T12:05:08.290Z,170
2017-06-01T12:06:08.336Z,170
2017-06-01T12:07:08.565Z,170
2017-06-01T12:08:08.401Z,170
2017-06-01T12:09:08.465Z,170
2017-06-01T12:10:08.505Z,165
2017-06-01T12:11:08.570Z,165
2017-06-01T12:12:08.589Z,165
2017-06-01T12:13:08.608Z,165
2017-06-01T12:14:09.040Z,165
2017-06-01T12:15:08.689Z,165
2017-06-01T12:16:08.728Z,165
2017-06-01T12:17:08.785Z,165
2017-06-01T12:18:08.825Z,165
2017-06-01T12:19:08.893Z,165
2017-06-01T12:20:08.909Z,165
2017-06-01T12:21:08.963Z,160
2017-06-01T12:22:08.999Z,160
2017-06-01T12:23:09.005Z,160
2017-06-01T12:24:09.060Z,160
2017-06-01T12:25:09.086Z,160
2017-06-01T12:26:09.114Z,160
2017-06-01T12:27:09.160Z,160
2017-06-01T12:28:09.175Z,160
2017-06-01T12:29:09.227Z,160
2017-06-01T12:30:09.265Z,160
2017-06-01T12:31:09.307Z,160
2017-06-01T12:32:09.358Z,160
2017-06-01T12:33:09.405Z,160
2017-06-01T12:34:09.426Z,160
2017-06-01T12:35:09.518Z,160
2017-06-01T12:36:09.501Z,165
2017-06-01T12:37:09.532Z,160
2017-06-01T12:38:09.597Z,160
2017-06-01T12:39:09.631Z,155
2017-06-01T12:40:09.842Z,155
2017-06-01T12:41:09.700Z,155
2017-06-01T12:42:09.962Z,155
2017-06-01T12:43:09.767Z,155
2017-06-01T12:44:09.810Z,155
2017-06-01T12:45:10.079Z,155
2017-06-01T12:46:09.900Z,155
2017-06-01T12:47:09.943Z,155
2017-06-01T12:48:09.987Z,155
2017-06-01T12:49:10.004Z,150
2017-06-01T12:50:10.070Z,150
2017-06-01T12:51:10.082Z,150
2017-06-01T12:52:10.157Z,150
2017-06-01T12:53:10.264Z,150
2017-06-01T12:54:10.204Z,150
2017-06-01T12:55:10.253Z,145
2017-06-01T12:56:10.269Z,145
2017-06-01T12:57:10.336Z,145
2017-06-01T12:58:10.367Z,145
2017-06-01T12:59:10.444Z,145
2017-06-01T13:00:10.440Z,145
2017-06-01T13:01:10.462Z,145
2017-06-01T13:02:11.030Z,145
2017-06-01T13:03:10.560Z,145
2017-06-01T13:04:10.577Z,145
2017-06-01T13:05:25.295Z,145
2017-06-01T13:06:10.664Z,145
2017-06-01T13:07:10.795Z,145
2017-06-01T13:08:10.764Z,145
2017-06-01T13:09:10.790Z,145
2017-06-01T13:10:10.820Z,145
2017-06-01T13:11:10.852Z,145
2017-06-01T13:12:10.912Z,145
2017-06-01T13:13:10.957Z,145
2017-06-01T13:14:11.014Z,145
2017-06-01T13:15:11.122Z,140
2017-06-01T13:16:11.086Z,140
2017-06-01T13:17:11.141Z,140
2017-06-01T13:18:11.164Z,140
2017-06-01T13:19:11.191Z,140
2017-06-01T13:20:11.364Z,140
2017-06-01T13:21:11.229Z,140
2017-06-01T13:22:11.294Z,140
2017-06-01T13:23:11.341Z,140
2017-06-01T13:24:11.372Z,140
2017-06-01T13:25:11.448Z,140
2017-06-01T13:26:11.460Z,140
2017-06-01T13:27:11.514Z,140
2017-06-01T13:28:11.545Z,140
2017-06-01T13:29:11.633Z,140
2017-06-01T13:30:11.592Z,140
2017-06-01T13:31:11.665Z,140
2017-06-01T13:32:11.718Z,140
2017-06-01T13:33:11.757Z,140
2017-06-01T13:34:11.781Z,140
2017-06-01T13:35:11.866Z,140
2017-06-01T13:36:11.878Z,140
2017-06-01T13:37:11.941Z,140
2017-06-01T13:38:11.931Z,140
2017-06-01T13:39:12.040Z,140
2017-06-01T13:40:12.266Z,145
2017-06-01T13:41:12.038Z,140
2017-06-01T13:42:12.070Z,140
2017-06-01T13:43:12.110Z,140
2017-06-01T13:44:12.147Z,140
2017-06-01T13:45:12.282Z,140
2017-06-01T13:46:12.202Z,140
2017-06-01T13:47:12.332Z,140
2017-06-01T13:48:12.318Z,140
2017-06-01T13:49:12.311Z,140
2017-06-01T13:50:12.383Z,140
2017-06-01T13:51:12.424Z,135